Time;durP1;ratioP1;P1;durP2;ratioP2;P2;SDS_P1;SDS_P2;PMS_P1;PMS_P2;Temp;Humidity;BMP_temperature;BMP_pressure;BME280_temperature;BME280_humidity;BME280_pressure;Samples;Min_cycle;Max_cycle;Signal;HPM_P1;HPM_P2
2021/04/13 00:01:24;;;;;;;5.80;3.20;;;;;;;8.04;63.54;100715.31;1726081;82;21173;-78
2021/04/13 00:04:07;;;;;;;10.28;4.53;;;;;;;8.07;63.04;100712.42;1730944;82;21250;-78
2021/04/13 00:06:51;;;;;;;9.23;4.20;;;;;;;8.05;62.91;100709.92;1726851;82;21196;-80
2021/04/13 00:09:31;;;;;;;14.20;4.65;;;;;;;8.19;62.57;100718.00;1724681;82;21175;-81
2021/04/13 00:12:07;;;;;;;12.63;3.90;;;;;;;8.24;62.52;100713.18;1728291;82;21183;-78
2021/04/13 00:14:40;;;;;;;8.45;3.72;;;;;;;8.38;62.41;100722.56;1727776;82;21644;-77
2021/04/13 00:17:12;;;;;;;7.53;3.20;;;;;;;8.18;62.87;100725.52;1728365;82;21602;-78
2021/04/13 00:20:03;;;;;;;7.03;3.45;;;;;;;8.20;62.94;100717.50;1720682;82;21172;-77
2021/04/13 00:22:32;;;;;;;12.40;3.75;;;;;;;7.96;63.77;100720.38;1719874;82;21060;-81
2021/04/13 00:24:58;;;;;;;9.65;4.00;;;;;;;8.08;63.55;100735.97;1705941;82;21242;-77
2021/04/13 00:27:24;;;;;;;7.37;3.77;;;;;;;7.98;63.47;100723.70;1730349;82;21963;-77
2021/04/13 00:29:52;;;;;;;6.50;3.53;;;;;;;8.15;63.33;100724.46;1716752;82;21155;-77
2021/04/13 00:32:22;;;;;;;14.40;3.62;;;;;;;8.21;63.01;100723.95;1725878;82;21148;-78
2021/04/13 00:34:57;;;;;;;7.35;3.40;;;;;;;8.38;63.03;100710.72;1726270;82;21131;-81
2021/04/13 00:37:30;;;;;;;7.78;3.70;;;;;;;8.63;62.55;100704.25;1721075;82;21049;-78
2021/04/13 00:39:59;;;;;;;8.43;4.10;;;;;;;8.37;62.93;100718.73;1703198;82;22007;-85
2021/04/13 00:42:28;;;;;;;6.33;3.52;;;;;;;8.42;63.05;100716.55;1700718;82;21602;-83
2021/04/13 00:45:00;;;;;;;9.10;3.95;;;;;;;8.32;63.29;100715.67;1722149;82;21133;-78
2021/04/13 00:47:30;;;;;;;8.03;3.50;;;;;;;7.80;64.70;100724.24;1721316;82;21187;-77
2021/04/13 00:49:58;;;;;;;7.85;3.60;;;;;;;8.02;64.20;100721.19;1725930;82;21174;-78
2021/04/13 00:52:53;;;;;;;10.58;3.87;;;;;;;8.02;64.33;100725.95;1726206;83;21187;-77
2021/04/13 00:55:21;;;;;;;7.90;3.60;;;;;;;8.11;64.02;100721.75;1727986;82;21700;-77
2021/04/13 00:58:22;;;;;;;7.17;4.03;;;;;;;7.90;64.60;100719.89;1683696;84;21622;-79
2021/04/13 01:00:52;;;;;;;8.33;4.15;;;;;;;8.10;64.04;100722.70;1647390;86;21227;-80
2021/04/13 01:03:19;;;;;;;11.25;3.98;;;;;;;8.05;64.12;100723.07;1661269;86;21185;-84
2021/04/13 01:05:49;;;;;;;8.08;4.10;;;;;;;7.98;64.27;100723.70;1653036;84;21338;-77
2021/04/13 01:08:20;;;;;;;6.67;4.55;;;;;;;8.18;63.91;100724.20;1638582;86;21251;-78
2021/04/13 01:10:51;;;;;;;9.38;4.72;;;;;;;8.22;63.60;100726.95;1657281;85;21205;-78
2021/04/13 01:13:23;;;;;;;6.92;4.85;;;;;;;8.29;63.05;100734.34;1656318;86;21071;-80
2021/04/13 01:15:51;;;;;;;8.00;5.30;;;;;;;8.13;63.13;100717.19;1643615;84;21264;-77
2021/04/13 01:18:25;;;;;;;8.95;4.78;;;;;;;8.16;63.33;100720.05;1636534;86;21388;-77
2021/04/13 01:21:02;;;;;;;9.33;4.58;;;;;;;8.31;63.16;100716.62;1689523;84;21230;-78
2021/04/13 01:23:36;;;;;;;6.42;3.95;;;;;;;8.30;63.17;100715.80;1646804;86;21612;-77
2021/04/13 01:26:04;;;;;;;5.53;3.80;;;;;;;7.91;64.28;100722.88;1691499;83;21193;-77
2021/04/13 01:28:34;;;;;;;7.58;4.10;;;;;;;8.14;63.79;100718.86;1678330;83;21172;-77
2021/04/13 01:31:15;;;;;;;8.55;4.08;;;;;;;8.00;64.09;100707.30;1645640;83;21456;-79
2021/04/13 01:33:45;;;;;;;6.45;3.77;;;;;;;7.84;64.63;100711.18;1669690;85;21151;-79
2021/04/13 01:36:30;;;;;;;6.37;3.70;;;;;;;7.65;65.20;100714.95;1654471;86;21210;-79
2021/04/13 01:39:13;;;;;;;6.80;3.70;;;;;;;7.65;65.32;100700.02;1654033;85;21173;-77
2021/04/13 01:44:23;;;;;;;7.90;3.87;;;;;;;7.44;65.98;100713.09;1656699;85;21606;-78
2021/04/13 01:46:50;;;;;;;;;;;;;;;7.42;66.00;100720.24;1661598;85;21170;-79
2021/04/13 01:49:17;;;;;;;6.85;3.72;;;;;;;7.36;66.07;100721.59;1664186;85;20561;-79
2021/04/13 01:51:43;;;;;;;7.08;3.80;;;;;;;7.32;66.02;100710.12;1674262;84;21168;-79
2021/04/13 01:54:14;;;;;;;6.25;3.80;;;;;;;7.39;65.90;100729.69;1673899;85;27348;-79
2021/04/13 01:57:11;;;;;;;6.12;3.50;;;;;;;7.25;66.37;100739.13;1673001;85;21417;-79
2021/04/13 01:59:44;;;;;;;5.60;3.50;;;;;;;7.05;67.02;100738.06;1644363;85;21188;-77
2021/04/13 02:02:30;;;;;;;9.45;3.80;;;;;;;7.31;66.52;100741.28;1671479;84;21737;-77
2021/04/13 02:05:01;;;;;;;4.57;3.30;;;;;;;7.25;66.33;100748.33;1670875;84;21184;-82
2021/04/13 02:08:03;;;;;;;9.08;3.70;;;;;;;7.41;66.15;100742.24;1666187;85;21197;-81
2021/04/13 02:10:46;;;;;;;6.83;4.60;;;;;;;7.38;66.13;100741.17;1671241;85;21275;-79
2021/04/13 02:13:26;;;;;;;11.80;5.80;;;;;;;7.24;66.28;100744.02;1640541;85;21230;-79
2021/04/13 02:16:09;;;;;;;10.70;5.97;;;;;;;7.19;66.39;100738.67;1672146;85;21671;-80
2021/04/13 02:18:43;;;;;;;10.53;7.55;;;;;;;7.28;66.12;100736.27;1672907;85;21224;-82
2021/04/13 02:21:14;;;;;;;10.53;6.70;;;;;;;7.16;66.13;100738.91;1671917;84;21181;-82
2021/04/13 02:23:52;;;;;;;10.40;6.20;;;;;;;7.20;65.85;100730.30;1690611;84;21196;-77
2021/04/13 02:26:18;;;;;;;9.40;5.12;;;;;;;7.22;65.67;100734.12;1636100;86;21191;-80
2021/04/13 02:28:47;;;;;;;7.55;4.75;;;;;;;7.21;65.68;100745.57;1666281;84;21223;-79
2021/04/13 02:31:36;;;;;;;7.83;5.12;;;;;;;7.14;65.69;100738.66;1660311;85;21204;-79
2021/04/13 02:33:44;;;;;;;7.60;5.33;;;;;;;7.04;65.79;100734.61;1607140;86;21213;-77
2021/04/13 02:36:16;;;;;;;7.33;5.10;;;;;;;7.09;65.28;100753.95;1621439;85;21237;-85
2021/04/13 02:38:49;;;;;;;8.18;5.08;;;;;;;7.00;65.14;100738.41;1682692;84;21227;-80
2021/04/13 02:41:23;;;;;;;7.75;5.12;;;;;;;7.15;64.83;100737.23;1643296;85;21200;-80
2021/04/13 02:43:53;;;;;;;8.73;4.87;;;;;;;7.07;64.93;100741.39;1662409;84;21236;-78
2021/04/13 02:46:27;;;;;;;7.65;5.20;;;;;;;7.06;64.91;100740.56;1643964;84;21274;-77
2021/04/13 02:49:09;;;;;;;9.15;6.00;;;;;;;7.14;64.67;100740.80;1646843;85;21670;-83
2021/04/13 02:51:39;;;;;;;7.85;4.15;;;;;;;7.24;64.54;100734.83;1671885;85;21205;-78
2021/04/13 02:54:14;;;;;;;7.17;4.30;;;;;;;7.01;64.74;100744.03;1671424;85;21202;-79
2021/04/13 02:56:42;;;;;;;5.97;3.85;;;;;;;6.94;65.21;100743.65;1667065;85;21164;-77
2021/04/13 02:59:21;;;;;;;6.75;4.25;;;;;;;6.92;65.41;100749.99;1671781;84;21220;-78
2021/04/13 03:02:24;;;;;;;6.08;4.20;;;;;;;6.82;65.94;100749.38;1670259;85;21248;-78
2021/04/13 03:04:57;;;;;;;6.20;3.77;;;;;;;7.10;65.59;100737.22;1670300;85;21339;-79
2021/04/13 03:07:27;;;;;;;7.33;4.10;;;;;;;7.09;65.53;100733.77;1648225;85;22086;-83
2021/04/13 03:10:04;;;;;;;4.97;3.65;;;;;;;7.12;66.38;100733.52;1633526;86;21278;-79
2021/04/13 03:12:31;;;;;;;8.90;4.58;;;;;;;7.12;66.47;100744.52;1665769;85;21326;-83
2021/04/13 03:15:00;;;;;;;6.75;4.60;;;;;;;7.09;65.94;100741.64;1668183;84;21189;-77
2021/04/13 03:17:30;;;;;;;7.78;5.28;;;;;;;7.33;65.82;100740.22;1667203;84;21275;-78
2021/04/13 03:20:09;;;;;;;7.40;4.75;;;;;;;7.28;65.67;100745.47;1673302;85;21171;-78
2021/04/13 03:22:38;;;;;;;6.10;4.97;;;;;;;7.22;66.25;100742.00;1668516;85;21694;-77
2021/04/13 03:25:07;;;;;;;8.28;6.37;;;;;;;7.27;66.51;100735.91;1676739;85;21141;-80
2021/04/13 03:27:35;;;;;;;11.97;7.40;;;;;;;7.15;66.39;100741.66;1608825;84;21209;-80
2021/04/13 03:30:28;;;;;;;13.00;8.35;;;;;;;7.17;66.92;100741.87;1671734;85;21156;-80
2021/04/13 03:33:01;;;;;;;11.78;9.38;;;;;;;7.02;67.01;100748.31;1675441;85;22442;-81
2021/04/13 03:35:28;;;;;;;13.25;9.68;;;;;;;6.94;67.78;100748.90;1689723;84;21183;-80
2021/04/13 03:37:56;;;;;;;14.68;10.48;;;;;;;7.03;67.54;100739.98;1663772;84;21260;-79
2021/04/13 03:40:24;;;;;;;13.22;9.90;;;;;;;7.05;67.79;100743.31;1641530;84;22141;-80
2021/04/13 03:42:59;;;;;;;14.90;10.70;;;;;;;7.04;68.03;100733.75;1660065;85;21192;-78
2021/04/13 03:45:30;;;;;;;16.23;11.50;;;;;;;6.98;68.50;100745.58;1688506;83;21642;-83
2021/04/13 03:48:04;;;;;;;17.15;11.28;;;;;;;6.75;68.96;100728.97;1723625;82;21778;-78
2021/04/13 03:50:36;;;;;;;16.12;11.75;;;;;;;6.87;69.24;100729.80;1726485;81;21187;-79
2021/04/13 03:53:10;;;;;;;15.25;11.20;;;;;;;6.92;69.77;100735.55;1732939;82;21232;-78
2021/04/13 03:55:36;;;;;;;16.10;10.65;;;;;;;6.85;69.42;100733.85;1725972;82;21175;-78
2021/04/13 03:58:23;;;;;;;14.95;10.35;;;;;;;6.88;69.63;100736.23;1726521;81;21617;-79
2021/04/13 04:00:50;;;;;;;16.55;9.55;;;;;;;6.79;69.45;100736.48;1733742;82;21203;-80
2021/04/13 04:03:16;;;;;;;10.23;7.90;;;;;;;6.70;69.38;100752.94;1730919;82;21479;-79
2021/04/13 04:05:52;;;;;;;8.73;6.30;;;;;;;6.61;70.82;100745.76;1700939;82;21356;-78
2021/04/13 04:08:51;;;;;;;;;;;;;;;;;;;;;
2021/04/13 04:11:05;;;;;;;10.20;5.78;;;;;;;6.51;70.54;100751.33;1712910;82;21140;-81
2021/04/13 04:13:48;;;;;;;;;;;;;;;6.59;70.89;100755.55;1728621;82;21237;-79
2021/04/13 04:16:32;;;;;;;8.98;5.55;;;;;;;6.51;71.84;100744.77;1726376;82;20258;-79
2021/04/13 04:19:19;;;;;;;10.50;5.95;;;;;;;6.62;71.15;100756.14;1730394;82;21213;-79
2021/04/13 04:21:48;;;;;;;10.75;6.03;;;;;;;6.46;71.64;100763.02;1721682;82;21178;-83
2021/04/13 04:24:28;;;;;;;9.33;5.90;;;;;;;6.50;72.53;100764.10;1720692;82;21634;-79
2021/04/13 04:27:07;;;;;;;10.35;5.83;;;;;;;6.31;72.68;100774.65;1726129;82;21145;-76
2021/04/13 04:29:38;;;;;;;9.18;5.85;;;;;;;6.28;72.99;100776.19;1708539;82;21189;-78
2021/04/13 04:32:32;;;;;;;9.35;5.83;;;;;;;6.27;73.08;100771.88;1728851;82;21596;-77
2021/04/13 04:35:07;;;;;;;9.18;5.85;;;;;;;6.10;74.11;100777.05;1720712;82;21052;-80
2021/04/13 04:37:50;;;;;;;9.30;5.67;;;;;;;6.11;74.36;100787.42;1729672;81;21183;-83
2021/04/13 04:40:30;;;;;;;8.55;5.28;;;;;;;6.06;74.95;100788.23;1731270;82;21606;-79
2021/04/13 04:43:03;;;;;;;11.88;5.75;;;;;;;5.80;75.16;100794.49;1726160;82;21180;-79
2021/04/13 04:45:48;;;;;;;12.13;5.92;;;;;;;5.88;75.36;100797.39;1719336;82;21231;-78
2021/04/13 04:48:25;;;;;;;11.15;6.20;;;;;;;5.60;76.82;100804.59;1704467;82;21128;-88
2021/04/13 04:51:00;;;;;;;12.13;5.92;;;;;;;5.48;76.85;100819.38;1730977;81;21136;-79
2021/04/13 04:53:32;;;;;;;11.88;6.12;;;;;;;5.42;77.84;100838.61;1719922;82;21673;-75
2021/04/13 04:56:00;;;;;;;10.50;5.97;;;;;;;5.24;78.59;100823.70;1726937;82;21732;-78
2021/04/13 04:58:26;;;;;;;9.58;5.42;;;;;;;5.37;78.26;100815.36;1732120;81;26867;-79
2021/04/13 05:00:52;;;;;;;13.15;6.33;;;;;;;5.32;78.49;100830.08;1726362;82;21203;-83
2021/04/13 05:03:22;;;;;;;9.78;5.55;;;;;;;5.16;79.19;100834.70;1727618;82;21215;-78
2021/04/13 05:05:51;;;;;;;11.70;5.80;;;;;;;5.08;79.67;100829.13;1728175;82;21320;-78
2021/04/13 05:08:23;;;;;;;12.03;6.40;;;;;;;5.23;79.73;100828.56;1723142;82;21626;-76
2021/04/13 05:10:51;;;;;;;9.83;5.55;;;;;;;5.19;79.72;100831.88;1727180;81;21182;-78
2021/04/13 05:13:19;;;;;;;12.25;6.33;;;;;;;5.25;80.00;100835.39;1725530;82;21512;-81
2021/04/13 05:15:45;;;;;;;11.18;5.83;;;;;;;5.28;80.24;100842.17;1725694;82;21213;-86
2021/04/13 05:18:17;;;;;;;10.53;5.90;;;;;;;5.34;79.63;100845.69;1729546;81;27811;-80
2021/04/13 05:20:46;;;;;;;10.82;5.65;;;;;;;5.35;80.85;100857.36;1725592;82;21176;-78
2021/04/13 05:23:13;;;;;;;12.20;5.67;;;;;;;5.44;80.40;100853.73;1731644;82;21292;-80
2021/04/13 05:25:39;;;;;;;13.62;5.80;;;;;;;5.32;80.14;100861.50;1727141;82;21669;-78
2021/04/13 05:28:05;;;;;;;13.60;6.03;;;;;;;5.36;80.57;100862.98;1729070;82;21605;-78
2021/04/13 05:30:32;;;;;;;12.40;5.95;;;;;;;5.25;80.14;100878.59;1703546;82;21199;-88
2021/04/13 05:32:59;;;;;;;12.93;6.05;;;;;;;5.30;80.22;100871.70;1727357;81;21219;-79
2021/04/13 05:35:25;;;;;;;;;;;;;;;5.34;80.69;100870.08;1732871;81;21249;-80
2021/04/13 05:37:51;;;;;;;13.58;5.87;;;;;;;5.27;80.60;100872.77;1720981;82;20274;-79
2021/04/13 05:40:26;;;;;;;11.17;5.53;;;;;;;5.33;80.39;100871.05;1703272;82;21016;-79
2021/04/13 05:42:57;;;;;;;18.48;6.47;;;;;;;5.24;80.73;100876.08;1702581;82;21187;-78
2021/04/13 05:45:27;;;;;;;12.58;6.15;;;;;;;5.18;80.83;100879.94;1723566;81;21171;-78
2021/04/13 05:47:56;;;;;;;11.35;6.12;;;;;;;5.28;81.22;100878.84;1736851;81;21231;-78
2021/04/13 05:50:27;;;;;;;11.33;6.03;;;;;;;5.30;80.79;100876.49;1730798;81;21164;-79
2021/04/13 05:52:53;;;;;;;11.63;6.00;;;;;;;5.56;81.13;100880.41;1725167;82;21256;-78
2021/04/13 05:55:19;;;;;;;11.12;5.70;;;;;;;5.65;80.44;100887.63;1725521;81;21304;-79
2021/04/13 05:57:47;;;;;;;12.50;6.33;;;;;;;5.54;79.81;100880.99;1709492;82;24224;-78
2021/04/13 06:00:14;;;;;;;11.93;5.55;;;;;;;5.44;80.64;100873.38;1729508;82;21371;-77
2021/04/13 06:02:40;;;;;;;12.05;5.97;;;;;;;5.60;80.19;100870.09;1723920;81;21092;-81
2021/04/13 06:05:10;;;;;;;10.75;5.05;;;;;;;5.58;80.00;100878.05;1728846;81;21298;-78
2021/04/13 06:07:39;;;;;;;12.43;6.00;;;;;;;5.67;80.35;100880.52;1730442;82;21176;-79
2021/04/13 06:10:06;;;;;;;11.88;5.97;;;;;;;5.70;80.34;100877.69;1706634;82;21183;-78
2021/04/13 06:12:33;;;;;;;12.60;6.55;;;;;;;5.67;80.33;100879.21;1723888;82;21211;-85
2021/04/13 06:14:59;;;;;;;;;;;;;;;5.60;79.92;100893.67;1710579;82;21069;-81
2021/04/13 06:17:24;;;;;;;11.50;5.20;;;;;;;5.61;79.81;100893.19;1730896;81;20621;-82
2021/04/13 06:19:55;;;;;;;11.23;5.40;;;;;;;5.64;80.05;100891.22;1731214;82;27887;-78
2021/04/13 06:22:23;;;;;;;12.05;5.40;;;;;;;5.58;79.69;100885.09;1729099;82;21709;-78
2021/04/13 06:24:49;;;;;;;8.88;4.90;;;;;;;5.56;79.89;100895.67;1728403;82;21178;-78
2021/04/13 06:27:15;;;;;;;10.98;5.75;;;;;;;5.50;80.44;100895.23;1697141;82;21207;-79
2021/04/13 06:29:41;;;;;;;9.00;5.25;;;;;;;5.44;79.96;100891.72;1704539;82;21401;-79
2021/04/13 06:32:09;;;;;;;13.48;5.72;;;;;;;5.29;80.61;100893.13;1699744;82;21227;-78
2021/04/13 06:34:36;;;;;;;11.43;5.67;;;;;;;5.48;80.73;100894.51;1706897;82;21693;-79
2021/04/13 06:37:03;;;;;;;10.75;5.42;;;;;;;5.33;81.15;100905.09;1701489;82;21206;-80
2021/04/13 06:39:34;;;;;;;15.63;5.45;;;;;;;5.42;81.46;100898.86;1724653;82;20982;-80
2021/04/13 06:42:14;;;;;;;8.35;4.53;;;;;;;5.21;80.98;100915.08;1732143;81;21184;-80
2021/04/13 06:44:51;;;;;;;12.73;5.25;;;;;;;5.10;81.11;100903.19;1722912;81;21143;-79
2021/04/13 06:47:54;;;;;;;11.97;4.90;;;;;;;5.12;81.70;100906.53;1710013;82;21133;-79
2021/04/13 06:50:37;;;;;;;7.28;4.28;;;;;;;5.10;82.07;100917.58;1708044;83;21758;-79
2021/04/13 06:53:40;;;;;;;10.23;5.40;;;;;;;5.07;81.87;100905.52;1705486;83;21223;-78
2021/04/13 06:56:15;;;;;;;10.93;4.78;;;;;;;5.24;81.60;100916.19;1706277;83;21184;-77
2021/04/13 06:59:06;;;;;;;13.22;5.35;;;;;;;5.34;81.47;100927.70;1705057;83;21153;-77
2021/04/13 07:01:49;;;;;;;12.50;5.30;;;;;;;5.21;81.62;100934.72;1698887;83;21234;-82
2021/04/13 07:04:40;;;;;;;13.70;5.17;;;;;;;5.38;81.22;100916.09;1705862;83;21255;-79
2021/04/13 07:07:26;;;;;;;11.30;5.30;;;;;;;5.50;81.52;100925.36;1702781;83;21633;-78
2021/04/13 07:10:02;;;;;;;10.43;4.65;;;;;;;5.72;81.43;100929.52;1707259;83;21220;-80
2021/04/13 07:12:43;;;;;;;11.68;5.12;;;;;;;5.63;80.83;100917.04;1707920;82;21183;-78
2021/04/13 07:15:18;;;;;;;13.30;4.85;;;;;;;5.80;80.75;100920.30;1695327;83;21215;-78
2021/04/13 07:18:10;;;;;;;10.55;4.95;;;;;;;5.66;80.13;100926.00;1702374;83;21234;-77
2021/04/13 07:20:47;;;;;;;9.80;4.37;;;;;;;5.71;79.85;100917.83;1706986;83;21555;-79
2021/04/13 07:23:21;;;;;;;11.80;4.80;;;;;;;5.74;80.13;100922.38;1710482;83;25254;-78
2021/04/13 07:25:58;;;;;;;10.18;4.60;;;;;;;5.66;79.99;100936.48;1703709;83;21160;-76
2021/04/13 07:28:32;;;;;;;12.60;4.85;;;;;;;5.49;80.89;100937.63;1681845;83;21200;-77
2021/04/13 07:31:17;;;;;;;9.08;4.78;;;;;;;5.50;81.04;100934.53;1696948;82;21220;-79
2021/04/13 07:33:44;;;;;;;7.87;4.50;;;;;;;5.19;81.79;100948.39;1703911;83;21207;-79
2021/04/13 07:36:16;;;;;;;10.28;4.35;;;;;;;5.15;81.86;100941.19;1708355;82;21183;-81
2021/04/13 07:38:45;;;;;;;8.68;4.58;;;;;;;5.17;81.64;100938.47;1681349;83;21643;-80
2021/04/13 07:41:19;;;;;;;10.13;4.33;;;;;;;5.23;81.91;100943.30;1702983;83;21157;-78
2021/04/13 07:43:49;;;;;;;7.70;4.40;;;;;;;5.28;82.12;100943.83;1703217;83;21347;-79
2021/04/13 07:46:28;;;;;;;7.80;4.80;;;;;;;4.97;81.95;100958.96;1708072;82;21657;-80
2021/04/13 07:49:18;;;;;;;8.23;4.05;;;;;;;5.02;82.50;100967.34;1727328;81;21721;-79
2021/04/13 07:52:05;;;;;;;9.83;4.47;;;;;;;4.97;82.20;100952.42;1731428;82;21179;-80
2021/04/13 07:55:14;;;;;;;6.47;3.65;;;;;;;4.96;81.88;100969.53;1716710;81;21768;-79
2021/04/13 07:58:00;;;;;;;13.15;3.98;;;;;;;4.66;82.89;100979.25;1726022;82;21637;-80
2021/04/13 08:00:33;;;;;;;7.30;3.85;;;;;;;4.86;82.62;100956.18;1719056;82;21176;-80
2021/04/13 08:03:29;;;;;;;6.83;3.80;;;;;;;4.72;83.01;100964.91;1732192;81;21195;-76
2021/04/13 08:05:57;;;;;;;7.90;3.90;;;;;;;4.61;83.60;100981.30;1731894;81;21139;-78
2021/04/13 08:08:38;;;;;;;7.72;3.83;;;;;;;4.74;83.40;100980.52;1730416;82;36138;-83
2021/04/13 08:11:14;;;;;;;8.13;3.90;;;;;;;4.57;83.87;101016.45;1724201;82;21350;-78
2021/04/13 08:13:43;;;;;;;5.72;3.20;;;;;;;4.51;83.95;100989.37;1722789;82;21017;-77
2021/04/13 08:16:31;;;;;;;9.20;3.15;;;;;;;4.50;83.88;100988.98;1724280;82;21226;-79
2021/04/13 08:19:34;;;;;;;6.47;3.65;;;;;;;4.59;83.78;100987.10;1717294;82;21152;-78
2021/04/13 08:22:13;;;;;;;6.50;3.33;;;;;;;4.76;84.06;100987.82;1724763;81;21602;-81
2021/04/13 08:24:52;;;;;;;6.15;2.70;;;;;;;4.62;84.17;100993.45;1729654;82;21159;-79
2021/04/13 08:27:50;;;;;;;5.22;2.92;;;;;;;4.50;83.91;101000.75;1731396;82;21188;-79
2021/04/13 08:30:45;;;;;;;4.45;2.75;;;;;;;4.56;84.21;101017.38;1727395;82;21127;-78
2021/04/13 08:33:36;;;;;;;3.98;2.12;;;;;;;4.49;84.83;100999.92;1720575;82;21186;-79
2021/04/13 08:36:15;;;;;;;7.05;2.60;;;;;;;4.40;84.57;101007.03;1709641;82;21182;-79
2021/04/13 08:39:04;;;;;;;6.45;2.42;;;;;;;4.45;84.33;101008.06;1731202;82;21245;-83
2021/04/13 08:41:48;;;;;;;6.47;2.45;;;;;;;4.54;84.87;101011.86;1729387;82;21203;-81
2021/04/13 08:44:47;;;;;;;4.00;2.30;;;;;;;4.56;83.79;101017.38;1703064;82;21167;-79
2021/04/13 08:47:43;;;;;;;3.17;2.10;;;;;;;4.34;84.34;101017.05;1702570;82;21247;-82
2021/04/13 08:50:34;;;;;;;4.05;2.25;;;;;;;4.26;83.91;101014.42;1728511;82;21200;-79
2021/04/13 08:53:26;;;;;;;3.37;2.00;;;;;;;4.53;83.87;101011.03;1725293;82;21187;-79
2021/04/13 08:56:05;;;;;;;4.33;2.25;;;;;;;4.46;84.31;101008.44;1719416;82;21498;-77
2021/04/13 08:58:46;;;;;;;3.58;2.10;;;;;;;4.37;84.15;101009.02;1733872;82;21155;-77
2021/04/13 09:01:37;;;;;;;2.98;1.92;;;;;;;4.41;84.22;101015.70;1727203;81;21629;-84
2021/04/13 09:04:08;;;;;;;5.70;1.98;;;;;;;4.27;84.26;101006.10;1722460;82;21191;-79
2021/04/13 09:06:59;;;;;;;3.30;2.00;;;;;;;4.33;84.10;101027.12;1726051;82;21399;-79
2021/04/13 09:09:46;;;;;;;2.90;1.92;;;;;;;4.35;83.99;101010.86;1731274;82;21694;-79
2021/04/13 09:12:29;;;;;;;3.10;2.00;;;;;;;4.50;84.40;101007.30;1725793;82;21604;-79
2021/04/13 09:15:12;;;;;;;2.95;1.77;;;;;;;4.29;84.73;101011.62;1721826;82;21163;-80
2021/04/13 09:17:45;;;;;;;5.25;2.10;;;;;;;4.29;84.37;101018.16;1724011;82;21227;-80
2021/04/13 09:20:26;;;;;;;4.72;2.27;;;;;;;4.20;84.95;101018.72;1714724;82;21219;-83
2021/04/13 09:23:08;;;;;;;5.95;2.20;;;;;;;4.39;84.80;101014.98;1732402;82;21243;-79
2021/04/13 09:25:42;;;;;;;6.03;2.70;;;;;;;4.60;84.05;101003.18;1731927;82;21112;-85
2021/04/13 09:28:19;;;;;;;3.98;2.15;;;;;;;4.61;84.17;101014.47;1734305;81;21167;-80
2021/04/13 09:30:49;;;;;;;4.33;2.40;;;;;;;4.67;82.87;101020.15;1728387;82;21138;-79
2021/04/13 09:33:40;;;;;;;4.25;2.37;;;;;;;4.54;84.13;101020.56;1734197;82;21928;-78
2021/04/13 09:36:31;;;;;;;5.65;2.02;;;;;;;4.73;83.45;101015.48;1718770;82;21208;-79
2021/04/13 09:39:18;;;;;;;7.20;2.50;;;;;;;4.64;83.61;101015.11;1729514;82;21193;-81
2021/04/13 09:42:07;;;;;;;4.60;2.33;;;;;;;4.63;83.14;101021.30;1731805;82;21631;-82
2021/04/13 09:45:07;;;;;;;4.40;2.15;;;;;;;4.80;82.71;101020.23;1716781;82;21176;-81
2021/04/13 09:47:50;;;;;;;3.40;2.00;;;;;;;4.63;83.00;101014.76;1731282;82;21826;-78
2021/04/13 09:50:31;;;;;;;4.50;2.08;;;;;;;4.95;82.67;101021.02;1724651;82;21168;-79
2021/04/13 09:53:38;;;;;;;5.05;2.00;;;;;;;4.94;82.13;101023.28;1727882;81;21184;-78
2021/04/13 09:56:49;;;;;;;4.12;2.30;;;;;;;5.21;81.83;101005.42;1723367;81;21777;-78
2021/04/13 09:59:58;;;;;;;3.98;2.30;;;;;;;5.46;81.27;101027.37;1726288;82;21159;-78
2021/04/13 10:03:09;;;;;;;4.45;2.75;;;;;;;5.37;79.87;101004.76;1661628;85;21298;-78
2021/04/13 10:05:37;;;;;;;5.58;3.02;;;;;;;5.47;81.32;101008.08;1728294;82;21136;-79
2021/04/13 10:08:11;;;;;;;8.25;3.62;;;;;;;5.50;81.55;101013.98;1670069;82;21053;-84
2021/04/13 10:10:43;;;;;;;6.28;3.30;;;;;;;5.17;81.37;101024.42;1726091;82;21147;-81
2021/04/13 10:13:50;;;;;;;4.87;3.12;;;;;;;5.42;80.81;101018.03;1730002;81;22215;-78
2021/04/13 10:16:55;;;;;;;8.03;3.45;;;;;;;5.42;80.47;101030.65;1727802;82;21212;-77
2021/04/13 10:19:51;;;;;;;6.42;3.85;;;;;;;5.32;80.73;101012.09;1730466;81;21203;-76
2021/04/13 10:22:57;;;;;;;6.35;3.65;;;;;;;5.51;80.75;101006.95;1729106;81;21211;-79
2021/04/13 10:25:43;;;;;;;7.55;4.60;;;;;;;5.44;80.63;101006.97;1724801;81;21190;-82
2021/04/13 10:28:29;;;;;;;6.80;4.53;;;;;;;5.61;80.83;101004.09;1728978;81;21203;-85
2021/04/13 10:31:20;;;;;;;8.15;5.22;;;;;;;5.69;81.67;100995.23;1725540;81;21354;-81
2021/04/13 10:34:21;;;;;;;9.90;5.95;;;;;;;5.72;79.95;100999.44;1728304;82;21210;-81
2021/04/13 10:37:25;;;;;;;8.70;4.72;;;;;;;5.64;80.40;100993.41;1728366;82;21144;-78
2021/04/13 10:40:26;;;;;;;13.55;5.50;;;;;;;5.90;80.29;100998.19;1690750;82;21195;-80
2021/04/13 10:43:32;;;;;;;9.33;5.95;;;;;;;6.08;79.10;100999.20;1720495;82;21252;-78
2021/04/13 10:46:32;;;;;;;12.20;6.80;;;;;;;6.20;79.65;101006.22;1728145;82;21267;-77
2021/04/13 10:49:21;;;;;;;9.15;5.65;;;;;;;6.41;78.71;101001.72;1734201;81;21190;-79
2021/04/13 10:52:23;;;;;;;9.00;5.37;;;;;;;6.28;77.02;100993.89;1727776;82;21053;-80
2021/04/13 10:55:43;;;;;;;7.78;4.40;;;;;;;6.19;77.95;101002.39;1730714;82;21231;-77
2021/04/13 10:58:35;;;;;;;6.60;3.50;;;;;;;6.45;78.72;100998.78;1734610;81;21171;-77
2021/04/13 11:01:32;;;;;;;6.05;3.10;;;;;;;6.44;76.56;100993.64;1735004;81;21250;-79
2021/04/13 11:04:35;;;;;;;5.15;2.70;;;;;;;6.49;76.17;101002.50;1718205;82;21239;-76
2021/04/13 11:07:33;;;;;;;5.87;3.35;;;;;;;6.68;75.94;100992.38;1706787;81;21159;-77
2021/04/13 11:10:31;;;;;;;7.12;3.60;;;;;;;6.80;75.33;100992.78;1732934;82;21203;-77
2021/04/13 11:13:24;;;;;;;6.47;3.70;;;;;;;7.00;75.08;100986.56;1731725;82;21637;-80
2021/04/13 11:16:18;;;;;;;6.65;3.80;;;;;;;7.17;74.56;100994.52;1730569;82;21235;-78
2021/04/13 11:19:11;;;;;;;6.30;3.60;;;;;;;7.44;75.12;100994.27;1735184;81;21195;-82
2021/04/13 11:22:08;;;;;;;8.85;3.22;;;;;;;7.35;74.13;100968.68;1728559;82;21179;-77
2021/04/13 11:24:51;;;;;;;7.50;3.40;;;;;;;7.46;73.11;100993.67;1732376;82;21136;-79
2021/04/13 11:27:59;;;;;;;6.42;3.35;;;;;;;7.10;72.25;101002.02;1727501;81;21593;-78
2021/04/13 11:31:08;;;;;;;10.65;3.60;;;;;;;6.95;72.20;100997.41;1731444;82;21278;-77
2021/04/13 11:34:10;;;;;;;5.90;3.00;;;;;;;7.07;72.85;101002.25;1731690;81;21192;-74
2021/04/13 11:37:06;;;;;;;6.62;3.10;;;;;;;7.18;73.40;100982.59;1725117;81;21175;-74
2021/04/13 11:40:02;;;;;;;7.10;3.22;;;;;;;7.00;71.84;100987.88;1653664;86;21646;-76
2021/04/13 11:42:32;;;;;;;8.25;3.52;;;;;;;7.12;71.71;100997.48;1655155;85;21661;-72
2021/04/13 11:45:30;;;;;;;7.80;3.50;;;;;;;7.18;71.03;100987.84;1702658;81;21287;-76
2021/04/13 11:48:07;;;;;;;9.58;4.47;;;;;;;7.27;72.89;100989.41;1729573;82;21189;-74
2021/04/13 11:50:59;;;;;;;8.15;3.92;;;;;;;7.36;72.49;100998.78;1730726;82;25186;-76
2021/04/13 11:53:31;;;;;;;7.17;3.77;;;;;;;7.35;72.31;100993.16;1728936;82;21635;-74
2021/04/13 11:56:00;;;;;;;7.30;3.98;;;;;;;7.47;71.94;100988.78;1728853;81;21160;-75
2021/04/13 11:58:33;;;;;;;8.03;3.90;;;;;;;7.43;71.03;100988.64;1728005;81;21152;-76
2021/04/13 12:01:21;;;;;;;7.30;3.70;;;;;;;7.21;72.32;100989.41;1706338;82;21262;-77
2021/04/13 12:04:09;;;;;;;7.75;3.80;;;;;;;7.35;71.78;100989.70;1729852;82;21152;-75
2021/04/13 12:07:00;;;;;;;11.48;4.15;;;;;;;7.36;71.13;101003.18;1696918;82;21198;-75
2021/04/13 12:10:01;;;;;;;10.85;4.87;;;;;;;7.48;72.29;100990.92;1734402;81;21199;-77
2021/04/13 12:12:35;;;;;;;7.12;3.70;;;;;;;7.63;71.42;100992.86;1721687;82;21195;-76
2021/04/13 12:15:10;;;;;;;6.35;3.50;;;;;;;7.57;70.24;100995.95;1724196;82;21219;-75
2021/04/13 12:17:48;;;;;;;9.05;4.20;;;;;;;7.61;71.22;100997.41;1730172;81;21010;-76
2021/04/13 12:20:39;;;;;;;6.58;3.60;;;;;;;7.45;70.73;100993.30;1719283;82;21191;-77
2021/04/13 12:23:18;;;;;;;6.78;3.70;;;;;;;7.62;70.14;100982.00;1730843;82;21171;-82
2021/04/13 12:25:55;;;;;;;6.62;3.45;;;;;;;7.51;69.40;100994.16;1729659;82;21184;-81
2021/04/13 12:28:44;;;;;;;6.30;3.20;;;;;;;7.53;69.15;100982.21;1723896;82;25812;-80
2021/04/13 12:31:24;;;;;;;6.25;3.42;;;;;;;7.63;69.71;100991.54;1721468;82;21224;-81